Time;durP1;ratioP1;P1;durP2;ratioP2;P2;SDS_P1;SDS_P2;PMS_P1;PMS_P2;Temp;Humidity;BMP_temperature;BMP_pressure;BME280_temperature;BME280_humidity;BME280_pressure;Samples;Min_cycle;Max_cycle;Signal;HPM_P1;HPM_P2
2023/07/07 00:00:15;;;;;;;7.82;4.55;;;;;;;13.64;75.63;101396.69;684789;28;1118;-79
2023/07/07 00:00:39;;;;;;;7.10;4.50;;;;;;;13.59;75.86;101393.09;685677;28;791;-79
2023/07/07 00:01:01;;;;;;;6.82;4.38;;;;;;;13.53;75.77;101385.06;689981;28;1078;-79
2023/07/07 00:01:22;;;;;;;6.78;4.30;;;;;;;13.61;76.25;101398.34;685336;28;1485;-79
2023/07/07 00:01:43;;;;;;;6.68;3.97;;;;;;;13.56;76.30;101393.00;680237;29;962;-79
2023/07/07 00:02:03;;;;;;;7.45;4.30;;;;;;;13.61;76.31;101399.25;677519;29;1176;-79
2023/07/07 00:02:24;;;;;;;7.07;4.50;;;;;;;13.57;76.48;101397.38;685323;28;1242;-80
2023/07/07 00:02:45;;;;;;;8.45;4.88;;;;;;;13.59;76.60;101400.97;687780;28;1256;-79
2023/07/07 00:03:05;;;;;;;7.93;4.72;;;;;;;13.58;76.67;101396.53;681958;28;1330;-79
2023/07/07 00:03:26;;;;;;;8.50;4.70;;;;;;;13.59;76.85;101390.47;685508;28;1138;-79
2023/07/07 00:03:47;;;;;;;8.35;4.60;;;;;;;13.58;76.28;101396.53;682832;28;1087;-79
2023/07/07 00:04:08;;;;;;;8.90;4.75;;;;;;;13.56;76.60;101388.66;687949;28;1371;-79
2023/07/07 00:04:29;;;;;;;8.65;4.80;;;;;;;13.61;76.91;101399.25;682984;28;1176;-79
2023/07/07 00:04:51;;;;;;;8.20;4.90;;;;;;;13.64;76.70;101399.31;682914;29;1002;-79
2023/07/07 00:05:11;;;;;;;7.68;4.70;;;;;;;13.62;76.92;101393.16;682411;28;1430;-78
2023/07/07 00:05:34;;;;;;;6.82;4.60;;;;;;;13.66;77.19;101405.47;682726;28;1217;-79
2023/07/07 00:05:55;;;;;;;7.30;5.15;;;;;;;13.63;77.19;101397.53;685244;28;1129;-79
2023/07/07 00:06:17;;;;;;;7.10;5.25;;;;;;;13.63;77.03;101400.16;687879;28;988;-79
2023/07/07 00:06:37;;;;;;;6.50;5.05;;;;;;;13.68;76.95;101400.28;688332;28;838;-79
2023/07/07 00:06:58;;;;;;;5.85;4.63;;;;;;;13.60;76.98;101392.25;686043;28;1174;-79
2023/07/07 00:07:19;;;;;;;6.30;4.80;;;;;;;13.66;76.89;101402.84;685273;28;1045;-79
2023/07/07 00:07:40;;;;;;;7.60;5.35;;;;;;;13.62;76.95;101401.03;683064;29;794;-79
2023/07/07 00:08:01;;;;;;;7.57;5.20;;;;;;;13.57;77.10;101386.91;685387;28;1058;-79
2023/07/07 00:08:21;;;;;;;7.80;5.33;;;;;;;13.57;76.90;101387.78;685323;28;1136;-79
2023/07/07 00:08:42;;;;;;;7.07;5.00;;;;;;;13.65;76.97;101398.47;688187;28;988;-79
2023/07/07 00:09:03;;;;;;;7.10;5.00;;;;;;;13.59;76.77;101385.22;687795;28;1803;-79
2023/07/07 00:09:25;;;;;;;7.33;4.70;;;;;;;13.59;76.86;101390.47;682498;29;1150;-79
2023/07/07 00:09:46;;;;;;;6.80;4.60;;;;;;;13.63;76.83;101394.91;685448;28;953;-79
2023/07/07 00:10:07;;;;;;;7.15;4.60;;;;;;;13.64;76.59;101388.81;685058;28;1658;-78
2023/07/07 00:10:28;;;;;;;7.43;4.85;;;;;;;13.70;76.64;101404.72;685294;28;1461;-80
2023/07/07 00:10:50;;;;;;;7.25;4.70;;;;;;;13.64;76.20;101399.31;685433;28;1280;-79
2023/07/07 00:11:11;;;;;;;6.95;4.70;;;;;;;13.64;76.30;101396.69;685093;28;1238;-79
2023/07/07 00:11:31;;;;;;;6.53;4.57;;;;;;;13.67;76.34;101403.75;684966;28;1314;-79
2023/07/07 00:11:53;;;;;;;6.95;4.80;;;;;;;13.64;75.99;101395.81;688111;28;1273;-79
2023/07/07 00:12:16;;;;;;;6.38;4.50;;;;;;;13.60;76.20;101394.84;687586;28;1391;-79
2023/07/07 00:12:38;;;;;;;6.80;4.60;;;;;;;13.53;76.26;101395.53;691122;28;1428;-79
2023/07/07 00:12:59;;;;;;;7.18;4.80;;;;;;;13.46;76.38;101383.13;687368;28;1440;-79
2023/07/07 00:13:20;;;;;;;6.97;4.82;;;;;;;13.53;76.29;101395.53;687865;28;1614;-79
2023/07/07 00:13:41;;;;;;;6.10;4.53;;;;;;;13.52;76.75;101402.50;688426;28;1432;-79
2023/07/07 00:14:02;;;;;;;6.05;4.53;;;;;;;13.47;76.56;101384.91;690775;28;1385;-79
2023/07/07 00:14:23;;;;;;;6.38;4.60;;;;;;;13.55;76.53;101399.09;688064;28;1340;-79
2023/07/07 00:14:44;;;;;;;6.28;4.40;;;;;;;13.47;76.87;101385.78;687432;28;1389;-78
2023/07/07 00:15:06;;;;;;;6.13;4.33;;;;;;;13.52;76.72;101405.13;685475;28;1175;-79
2023/07/07 00:15:26;;;;;;;7.57;4.90;;;;;;;13.47;76.79;101385.78;679853;29;1448;-79
2023/07/07 00:15:47;;;;;;;8.50;5.20;;;;;;;13.51;76.74;101405.13;682307;29;1204;-79
2023/07/07 00:16:08;;;;;;;8.05;5.30;;;;;;;13.46;76.88;101393.59;682625;29;1009;-79
2023/07/07 00:16:29;;;;;;;6.28;4.65;;;;;;;13.41;76.80;101386.50;688404;28;791;-79
2023/07/07 00:16:49;;;;;;;5.77;4.70;;;;;;;13.43;76.73;101390.06;690908;28;937;-79
2023/07/07 00:17:12;;;;;;;5.30;4.30;;;;;;;13.45;76.79;101392.72;684887;28;1293;-79
2023/07/07 00:17:32;;;;;;;6.07;4.75;;;;;;;13.52;76.97;101394.66;685505;28;1251;-79
2023/07/07 00:17:53;;;;;;;6.30;4.80;;;;;;;13.50;76.91;101395.44;683711;28;1825;-79
2023/07/07 00:18:17;;;;;;;6.90;4.90;;;;;;;13.49;77.03;101405.06;682843;28;1071;-79
2023/07/07 00:18:38;;;;;;;8.00;4.72;;;;;;;13.48;76.81;101402.41;683002;29;831;-79
2023/07/07 00:18:59;;;;;;;7.30;4.35;;;;;;;13.48;77.02;101402.41;685248;28;1193;-79
2023/07/07 00:19:20;;;;;;;7.07;4.50;;;;;;;13.43;76.87;101392.69;687875;28;1373;-78
2023/07/07 00:19:41;;;;;;;6.40;4.40;;;;;;;13.42;77.00;101396.13;685536;28;1020;-79
2023/07/07 00:20:07;;;;;;;7.18;4.68;;;;;;;13.46;76.96;101401.47;683135;28;1516;-79
2023/07/07 00:20:28;;;;;;;7.65;4.88;;;;;;;13.40;77.01;101395.22;685468;28;1089;-79
2023/07/07 00:20:49;;;;;;;7.13;4.73;;;;;;;13.40;76.79;101389.97;685336;28;1988;-78
2023/07/07 00:21:10;;;;;;;6.60;4.38;;;;;;;13.42;77.09;101397.88;686228;28;1151;-79
2023/07/07 00:21:30;;;;;;;6.82;4.30;;;;;;;13.37;77.37;101394.25;685583;28;885;-78
2023/07/07 00:21:58;;;;;;;6.47;4.40;;;;;;;13.43;77.09;101397.03;686682;28;981;-79
2023/07/07 00:22:18;;;;;;;7.07;4.53;;;;;;;13.41;77.30;101396.13;681252;28;1013;-79
2023/07/07 00:22:39;;;;;;;6.90;4.70;;;;;;;13.42;77.34;101393.50;683101;28;1167;-78
2023/07/07 00:23:00;;;;;;;6.90;4.60;;;;;;;13.45;77.23;101404.94;685478;28;961;-78
2023/07/07 00:23:20;;;;;;;7.72;5.10;;;;;;;13.45;77.47;101404.94;682439;29;1225;-78
2023/07/07 00:23:41;;;;;;;8.57;5.20;;;;;;;13.39;77.47;101388.19;677655;29;1057;-79
2023/07/07 00:24:02;;;;;;;8.93;5.38;;;;;;;13.47;77.26;101400.63;680142;29;1031;-78
2023/07/07 00:24:25;;;;;;;7.90;4.82;;;;;;;13.45;77.83;101391.84;682758;28;1247;-78
2023/07/07 00:24:45;;;;;;;8.80;4.82;;;;;;;13.47;77.57;101398.00;680533;28;1334;-78
2023/07/07 00:25:08;;;;;;;8.60;4.80;;;;;;;13.42;77.59;101393.50;682585;29;1151;-78
2023/07/07 00:25:29;;;;;;;8.38;4.80;;;;;;;13.42;77.79;101393.50;683417;28;1345;-79
2023/07/07 00:26:04;;;;;;;6.60;4.57;;;;;;;13.48;77.83;101402.41;682391;28;1076;-79
2023/07/07 00:26:25;;;;;;;6.13;4.53;;;;;;;13.44;77.43;101401.44;682651;28;1199;-78
2023/07/07 00:26:45;;;;;;;5.93;4.32;;;;;;;13.42;77.57;101393.50;680125;29;996;-79
2023/07/07 00:27:06;;;;;;;6.33;4.40;;;;;;;13.41;77.62;101399.59;686611;28;1020;-78
2023/07/07 00:27:28;;;;;;;6.38;4.20;;;;;;;13.38;77.49;101396.00;688116;28;1088;-79
2023/07/07 00:27:48;;;;;;;7.17;4.27;;;;;;;13.37;77.47;101392.53;685446;28;1107;-78
2023/07/07 00:28:09;;;;;;;7.00;4.30;;;;;;;13.33;77.66;101382.78;685169;28;1181;-78
2023/07/07 00:28:31;;;;;;;7.50;4.63;;;;;;;13.34;77.76;101395.03;682317;29;1193;-78
2023/07/07 00:28:51;;;;;;;6.07;4.60;;;;;;;13.32;77.74;101388.88;682710;28;1382;-78
2023/07/07 00:29:12;;;;;;;5.87;4.60;;;;;;;13.36;77.45;101397.72;687583;28;1129;-78
2023/07/07 00:29:32;;;;;;;6.18;4.60;;;;;;;13.37;77.70;101405.63;682869;28;1128;-79
2023/07/07 00:29:53;;;;;;;6.10;4.50;;;;;;;13.32;77.56;101398.50;682866;29;1056;-79
2023/07/07 00:30:14;;;;;;;6.50;4.10;;;;;;;13.31;77.72;101394.97;679635;29;1267;-78
2023/07/07 00:30:36;;;;;;;6.50;4.00;;;;;;;13.34;77.47;101404.66;682885;29;807;-78
2023/07/07 00:30:57;;;;;;;6.70;4.10;;;;;;;13.31;78.07;101400.22;685441;28;1093;-78
2023/07/07 00:31:22;;;;;;;7.15;4.38;;;;;;;13.28;77.86;101402.78;685120;28;1359;-78
2023/07/07 00:31:42;;;;;;;7.03;4.50;;;;;;;13.31;78.00;101413.31;688022;28;1309;-78
2023/07/07 00:32:03;;;;;;;8.13;4.50;;;;;;;13.25;77.66;101394.81;682702;28;1614;-79
2023/07/07 00:32:24;;;;;;;7.35;4.65;;;;;;;13.24;77.86;101393.94;685307;28;1000;-78
2023/07/07 00:32:45;;;;;;;7.57;4.80;;;;;;;13.31;77.77;101408.09;682800;29;1155;-78
2023/07/07 00:33:06;;;;;;;8.10;4.90;;;;;;;13.29;78.17;101396.69;685259;28;1147;-79
2023/07/07 00:33:28;;;;;;;8.23;4.93;;;;;;;13.30;78.12;101396.69;685461;28;1554;-79
2023/07/07 00:33:48;;;;;;;7.75;5.00;;;;;;;13.29;78.05;101397.53;685212;28;1240;-78
2023/07/07 00:34:09;;;;;;;6.63;4.88;;;;;;;13.31;78.13;101402.84;682500;28;1276;-79
2023/07/07 00:34:41;;;;;;;6.90;4.90;;;;;;;13.40;78.17;101410.06;682816;29;854;-80
2023/07/07 00:35:02;;;;;;;6.88;4.45;;;;;;;13.37;78.43;101400.38;680164;29;1063;-79
2023/07/07 00:35:23;;;;;;;7.28;4.40;;;;;;;13.37;78.16;101410.88;688115;28;1302;-78
2023/07/07 00:35:46;;;;;;;6.60;4.10;;;;;;;13.32;78.32;101391.50;687502;28;1009;-78
2023/07/07 00:36:07;;;;;;;6.50;4.28;;;;;;;13.32;78.62;101396.75;682631;29;1132;-78
2023/07/07 00:36:27;;;;;;;6.60;4.63;;;;;;;13.35;78.29;101404.72;680122;29;982;-78
2023/07/07 00:36:48;;;;;;;6.82;4.90;;;;;;;13.29;78.40;101386.19;685444;28;999;-79
2023/07/07 00:37:09;;;;;;;7.50;5.07;;;;;;;13.40;78.66;101403.06;685431;28;1409;-78
2023/07/07 00:37:29;;;;;;;8.23;4.80;;;;;;;13.36;78.47;101403.84;685322;28;1104;-79
2023/07/07 00:37:51;;;;;;;8.18;4.68;;;;;;;13.39;78.51;101408.31;682686;28;1836;-78
2023/07/07 00:38:12;;;;;;;7.45;4.45;;;;;;;13.38;78.58;101402.16;687839;28;1330;-78
2023/07/07 00:38:33;;;;;;;6.50;4.40;;;;;;;13.35;78.38;101396.84;684487;28;839;-78
2023/07/07 00:38:53;;;;;;;6.45;4.60;;;;;;;13.36;78.54;101401.25;685477;28;930;-79
2023/07/07 00:39:14;;;;;;;6.20;4.57;;;;;;;13.30;78.30;101394.06;684807;28;1335;-78
2023/07/07 00:39:35;;;;;;;6.07;4.82;;;;;;;13.30;78.41;101403.69;685542;28;796;-79
2023/07/07 00:39:55;;;;;;;5.50;4.47;;;;;;;13.26;78.53;101391.34;680138;29;958;-79
2023/07/07 00:40:18;;;;;;;5.95;4.50;;;;;;;13.28;78.46;101392.28;680358;28;1056;-79
2023/07/07 00:40:39;;;;;;;7.10;4.53;;;;;;;13.27;78.68;101399.25;682385;28;1510;-79
2023/07/07 00:41:02;;;;;;;7.50;4.63;;;;;;;13.33;78.54;101406.38;682231;28;1968;-79
2023/07/07 00:41:22;;;;;;;7.70;4.45;;;;;;;13.31;78.33;101405.47;687600;28;1340;-78
2023/07/07 00:41:43;;;;;;;7.25;4.65;;;;;;;13.29;78.57;101396.69;688089;28;1345;-78
2023/07/07 00:42:04;;;;;;;7.33;4.60;;;;;;;13.29;78.42;101399.28;682816;29;1022;-79
2023/07/07 00:42:24;;;;;;;6.70;4.57;;;;;;;13.30;78.86;101403.69;679190;29;1310;-78
2023/07/07 00:42:45;;;;;;;6.60;4.60;;;;;;;13.25;78.47;101390.47;682668;28;1096;-78
2023/07/07 00:43:14;;;;;;;6.18;4.63;;;;;;;13.33;78.55;101402.88;683417;28;1252;-79
2023/07/07 00:43:35;;;;;;;6.90;4.43;;;;;;;13.27;78.53;101390.50;690841;28;1039;-78
2023/07/07 00:44:10;;;;;;;6.53;4.20;;;;;;;13.26;78.92;101394.84;685415;28;945;-78
2023/07/07 00:45:10;;;;;;;7.00;4.20;;;;;;;13.21;78.63;101393.84;682768;28;1113;-79
2023/07/07 00:45:30;;;;;;;6.63;4.60;;;;;;;13.23;78.79;101399.13;682798;28;1025;-78
2023/07/07 00:45:51;;;;;;;6.70;4.93;;;;;;;13.13;78.89;101385.78;689186;28;1020;-78
2023/07/07 00:46:14;;;;;;;6.70;4.90;;;;;;;13.15;78.82;101388.44;680326;28;1432;-79
2023/07/07 00:46:37;;;;;;;6.55;4.85;;;;;;;13.14;78.83;101390.16;680147;29;1427;-78
2023/07/07 00:46:57;;;;;;;7.43;5.07;;;;;;;13.15;79.00;101394.56;682686;28;1092;-79
2023/07/07 00:47:18;;;;;;;7.70;5.07;;;;;;;13.13;78.97;101395.34;682459;28;1153;-80
2023/07/07 00:47:51;;;;;;;7.75;4.97;;;;;;;13.07;78.77;101384.69;682187;28;1638;-79
2023/07/07 00:48:19;;;;;;;7.55;4.90;;;;;;;13.12;78.88;101393.59;682495;29;1089;-78
2023/07/07 00:48:44;;;;;;;6.30;4.70;;;;;;;13.04;79.13;101385.53;677609;29;823;-79
2023/07/07 00:49:16;;;;;;;5.90;4.72;;;;;;;13.09;79.20;101394.38;685309;28;1437;-78
2023/07/07 00:49:36;;;;;;;7.00;4.80;;;;;;;13.09;79.27;101399.63;682857;29;838;-79
2023/07/07 00:49:57;;;;;;;7.90;4.90;;;;;;;13.04;79.33;101388.16;680077;29;1198;-79
2023/07/07 00:50:21;;;;;;;8.47;4.90;;;;;;;13.07;79.32;101397.81;679027;29;1562;-79
2023/07/07 00:50:58;;;;;;;7.82;4.93;;;;;;;13.01;79.11;101388.94;685471;28;1492;-79
2023/07/07 00:51:25;;;;;;;7.57;5.00;;;;;;;13.04;79.40;101396.00;685037;28;1946;-79
2023/07/07 00:51:52;;;;;;;7.38;4.93;;;;;;;12.94;79.30;101379.13;690677;28;1004;-79
2023/07/07 00:52:13;;;;;;;6.90;4.80;;;;;;;13.01;79.20;101390.66;690515;28;1151;-78
2023/07/07 00:52:35;;;;;;;5.60;4.30;;;;;;;12.93;78.92;101382.59;689554;28;941;-80
2023/07/07 00:52:56;;;;;;;5.82;4.45;;;;;;;12.95;79.09;101390.47;685250;28;1242;-80
2023/07/07 00:53:18;;;;;;;5.55;4.30;;;;;;;12.95;78.98;101390.47;687906;28;1095;-78
2023/07/07 00:53:42;;;;;;;7.15;4.70;;;;;;;12.92;78.98;101385.13;685515;28;1427;-78
2023/07/07 00:54:11;;;;;;;6.85;4.43;;;;;;;12.93;79.30;101386.91;682604;28;1161;-79
2023/07/07 00:54:35;;;;;;;6.10;4.30;;;;;;;12.97;79.18;101394.06;685765;28;1219;-78
2023/07/07 00:54:56;;;;;;;6.30;4.60;;;;;;;12.92;79.08;101390.38;685266;28;1378;-79
2023/07/07 00:55:30;;;;;;;5.80;4.60;;;;;;;12.95;79.03;101401.88;682567;28;977;-78
2023/07/07 00:56:05;;;;;;;5.15;4.20;;;;;;;12.87;79.26;101385.00;687321;28;1093;-78
2023/07/07 00:56:37;;;;;;;6.32;4.30;;;;;;;12.84;79.08;101383.19;682515;28;1100;-78
2023/07/07 00:56:59;;;;;;;6.38;4.50;;;;;;;12.79;79.17;101376.91;682692;28;1030;-78
2023/07/07 00:57:19;;;;;;;7.47;4.60;;;;;;;12.87;78.91;101393.78;682493;28;1190;-78
2023/07/07 00:57:41;;;;;;;8.20;4.90;;;;;;;12.89;79.08;101402.56;685443;28;1077;-79
2023/07/07 00:58:06;;;;;;;8.68;4.90;;;;;;;12.78;79.10;101388.25;682323;28;1400;-78
2023/07/07 00:58:29;;;;;;;6.45;4.43;;;;;;;12.81;79.30;101397.94;682672;28;1098;-78
2023/07/07 00:58:50;;;;;;;6.40;4.32;;;;;;;12.84;78.91;101398.91;680245;29;999;-79
2023/07/07 00:59:21;;;;;;;6.30;4.35;;;;;;;12.81;79.43;101393.59;680253;28;1098;-78
2023/07/07 00:59:46;;;;;;;7.20;4.40;;;;;;;12.78;79.41;101388.25;687912;28;1383;-80
2023/07/07 01:00:07;;;;;;;7.53;4.30;;;;;;;12.79;79.26;101397.00;687809;28;1353;-78
2023/07/07 01:00:28;;;;;;;9.60;4.75;;;;;;;12.75;79.54;101388.16;690566;28;1216;-78
2023/07/07 01:01:00;;;;;;;9.15;4.97;;;;;;;12.84;79.47;101404.16;690677;28;1912;-78
2023/07/07 01:01:21;;;;;;;7.80;5.00;;;;;;;12.76;79.54;101392.56;690363;28;1063;-78
2023/07/07 01:01:42;;;;;;;6.95;4.68;;;;;;;12.79;79.36;101381.28;685347;28;1356;-78
2023/07/07 01:02:09;;;;;;;7.05;4.75;;;;;;;12.80;79.37;101394.44;685188;28;1208;-78
2023/07/07 01:02:29;;;;;;;6.70;4.80;;;;;;;12.77;79.53;101381.25;683088;28;1516;-79
2023/07/07 01:02:55;;;;;;;7.05;4.80;;;;;;;12.82;79.28;101394.47;682691;29;1073;-79
2023/07/07 01:03:24;;;;;;;8.20;4.82;;;;;;;12.79;79.32;101384.78;687085;28;1432;-78
2023/07/07 01:03:53;;;;;;;8.88;4.70;;;;;;;12.86;79.60;101401.56;685401;28;1072;-79
2023/07/07 01:04:17;;;;;;;8.35;4.57;;;;;;;12.83;79.33;101396.22;682508;28;1074;-78
2023/07/07 01:04:38;;;;;;;6.55;4.40;;;;;;;12.76;79.56;101379.47;682720;29;1098;-78
2023/07/07 01:05:02;;;;;;;5.93;4.45;;;;;;;12.84;79.37;101400.66;681784;29;1113;-78
2023/07/07 01:05:29;;;;;;;6.20;4.60;;;;;;;12.81;79.49;101396.22;682378;28;1260;-78
2023/07/07 01:05:53;;;;;;;6.90;4.70;;;;;;;12.82;79.59;101395.38;682051;28;1189;-78
2023/07/07 01:06:21;;;;;;;7.30;4.90;;;;;;;12.80;79.71;101396.16;682544;28;1029;-78
2023/07/07 01:06:47;;;;;;;7.28;4.78;;;;;;;12.85;79.57;101399.81;680070;29;966;-78
2023/07/07 01:07:21;;;;;;;6.97;4.45;;;;;;;12.82;79.42;101395.38;685191;28;1387;-78
2023/07/07 01:07:45;;;;;;;7.88;4.50;;;;;;;12.83;79.48;101396.22;682760;29;969;-78
2023/07/07 01:08:06;;;;;;;8.45;4.63;;;;;;;12.77;79.58;101386.47;684109;28;1204;-78
2023/07/07 01:08:28;;;;;;;8.57;4.80;;;;;;;12.78;79.73;101390.88;680484;28;1194;-79
2023/07/07 01:08:58;;;;;;;7.15;4.80;;;;;;;12.86;79.49;101394.59;677417;28;1129;-78
2023/07/07 01:09:18;;;;;;;6.75;4.68;;;;;;;12.82;79.63;101395.38;679653;29;1016;-78
2023/07/07 01:09:39;;;;;;;6.25;4.50;;;;;;;12.81;79.76;101396.22;680265;29;803;-79
2023/07/07 01:10:00;;;;;;;6.35;4.60;;;;;;;12.86;79.51;101401.56;680066;28;1304;-78
2023/07/07 01:10:21;;;;;;;6.47;4.93;;;;;;;12.78;79.71;101385.63;685062;28;1197;-78
2023/07/07 01:10:41;;;;;;;6.95;5.00;;;;;;;12.77;79.62;101391.72;688011;28;1385;-78
2023/07/07 01:11:03;;;;;;;8.27;5.13;;;;;;;12.81;79.94;101404.06;685365;28;1199;-78
2023/07/07 01:11:24;;;;;;;7.65;4.90;;;;;;;12.80;79.71;101389.19;682539;28;1114;-79
2023/07/07 01:11:47;;;;;;;6.60;4.90;;;;;;;12.82;79.58;101397.09;685379;28;1102;-78
2023/07/07 01:12:11;;;;;;;6.25;4.88;;;;;;;12.82;79.46;101394.47;685023;28;1284;-79
2023/07/07 01:12:32;;;;;;;9.73;4.80;;;;;;;12.78;79.66;101392.63;688210;28;1268;-79
2023/07/07 01:12:53;;;;;;;9.90;5.00;;;;;;;12.78;80.01;101393.47;682599;28;1391;-79
2023/07/07 01:13:14;;;;;;;9.40;5.15;;;;;;;12.82;79.46;101399.69;685182;28;1136;-79
2023/07/07 01:13:36;;;;;;;6.70;4.97;;;;;;;12.79;79.63;101399.63;685408;28;1163;-78
2023/07/07 01:14:01;;;;;;;6.47;4.80;;;;;;;12.75;79.71;101386.44;688428;28;1456;-79
2023/07/07 01:14:26;;;;;;;5.78;4.40;;;;;;;12.79;79.71;101397.88;684967;28;1191;-78
2023/07/07 01:14:49;;;;;;;5.43;4.32;;;;;;;12.77;79.66;101394.34;685196;28;1692;-78
2023/07/07 01:15:10;;;;;;;6.10;4.47;;;;;;;12.76;79.62;101395.19;685379;28;1095;-79
2023/07/07 01:15:37;;;;;;;6.10;4.50;;;;;;;12.70;79.83;101392.38;688023;28;1160;-79
2023/07/07 01:16:26;;;;;;;6.47;4.70;;;;;;;12.69;79.42;101391.50;683280;28;1202;-78
2023/07/07 01:16:53;;;;;;;7.07;4.63;;;;;;;12.75;79.77;101398.66;680201;29;958;-78
2023/07/07 01:17:35;;;;;;;6.13;4.93;;;;;;;12.73;79.54;101402.97;682306;28;1098;-79
2023/07/07 01:18:15;;;;;;;7.03;4.95;;;;;;;12.71;79.69;101397.66;685379;28;953;-79
2023/07/07 01:18:46;;;;;;;5.82;4.60;;;;;;;12.70;79.42;101406.38;682690;28;1259;-79
2023/07/07 01:19:32;;;;;;;6.25;4.80;;;;;;;12.71;79.64;101402.00;679717;29;1268;-79
2023/07/07 01:20:09;;;;;;;6.50;4.80;;;;;;;12.71;79.56;101402.91;677369;29;950;-78
2023/07/07 01:20:41;;;;;;;6.47;4.20;;;;;;;12.67;79.50;101398.41;688988;28;1035;-78
2023/07/07 01:21:48;;;;;;;5.50;3.90;;;;;;;12.68;79.64;101400.22;687089;28;1920;-78
2023/07/07 01:22:39;;;;;;;7.05;4.60;;;;;;;12.69;79.66;101401.97;679412;29;1494;-79
2023/07/07 01:23:29;;;;;;;4.80;4.20;;;;;;;12.63;79.60;101396.56;685445;28;1247;-78
2023/07/07 01:23:56;;;;;;;6.72;4.82;;;;;;;12.65;79.31;101407.09;687905;28;1072;-78
2023/07/07 01:24:46;;;;;;;7.30;4.80;;;;;;;12.65;79.66;101409.69;682749;28;1057;-78
2023/07/07 01:25:43;;;;;;;6.55;4.85;;;;;;;12.58;79.43;101406.00;690322;28;1186;-79
2023/07/07 01:26:06;;;;;;;6.65;4.95;;;;;;;12.60;79.37;101396.47;680635;29;1174;-78
2023/07/07 01:26:37;;;;;;;6.70;4.68;;;;;;;12.56;79.52;101400.72;682217;29;1125;-78
2023/07/07 01:27:26;;;;;;;6.13;4.32;;;;;;;12.58;79.54;101400.75;685754;28;1147;-78
2023/07/07 01:28:07;;;;;;;5.90;4.70;;;;;;;12.57;79.48;101405.13;679576;29;1014;-78
2023/07/07 01:28:53;;;;;;;6.57;4.72;;;;;;;12.58;79.80;101395.53;680131;28;1513;-78
2023/07/07 01:29:27;;;;;;;6.80;4.47;;;;;;;12.55;79.53;101396.31;682319;28;1074;-79
2023/07/07 01:29:56;;;;;;;6.88;4.72;;;;;;;12.58;79.89;101406.91;685291;28;988;-79
2023/07/07 01:30:29;;;;;;;6.10;4.65;;;;;;;12.54;79.61;101394.53;682290;29;1013;-79
2023/07/07 01:31:01;;;;;;;5.63;4.25;;;;;;;12.50;79.84;101386.56;688425;28;1313;-79
2023/07/07 01:31:34;;;;;;;6.60;4.38;;;;;;;12.55;79.64;101401.53;685074;28;1110;-79
2023/07/07 01:32:06;;;;;;;8.05;4.50;;;;;;;12.54;79.79;101399.78;682611;28;1016;-79
2023/07/07 01:32:29;;;;;;;7.43;4.88;;;;;;;12.50;79.57;101397.03;682584;28;1422;-79
2023/07/07 01:32:51;;;;;;;6.45;5.00;;;;;;;12.45;79.97;101386.41;687951;28;1190;-79
2023/07/07 01:33:16;;;;;;;6.82;5.05;;;;;;;12.41;80.00;101379.34;684566;28;1387;-79
2023/07/07 01:33:38;;;;;;;6.57;4.90;;;;;;;12.42;79.87;101391.56;685394;28;846;-79
2023/07/07 01:34:01;;;;;;;6.32;4.60;;;;;;;12.43;79.89;101391.59;685112;28;1470;-79
2023/07/07 01:34:23;;;;;;;6.90;4.70;;;;;;;12.45;79.90;101400.41;685055;28;1263;-79
2023/07/07 01:34:46;;;;;;;6.50;4.70;;;;;;;12.44;79.77;101396.00;685406;28;993;-78
2023/07/07 01:35:12;;;;;;;7.00;4.95;;;;;;;12.42;80.10;101394.19;685092;28;1343;-79
2023/07/07 01:35:33;;;;;;;9.25;5.28;;;;;;;12.39;79.77;101383.59;686968;28;1114;-79
2023/07/07 01:35:54;;;;;;;8.50;5.00;;;;;;;12.38;79.70;101387.06;683375;28;1252;-79
2023/07/07 01:36:15;;;;;;;7.32;4.50;;;;;;;12.43;79.99;101401.19;684798;28;1304;-79
2023/07/07 01:36:36;;;;;;;5.77;4.60;;;;;;;12.42;79.82;101397.66;679969;29;1244;-79
2023/07/07 01:36:56;;;;;;;6.38;4.70;;;;;;;12.33;79.88;101390.44;679936;29;926;-79
2023/07/07 01:37:17;;;;;;;6.93;4.90;;;;;;;12.36;79.28;101391.38;682401;29;958;-79
2023/07/07 01:37:37;;;;;;;6.80;4.57;;;;;;;12.30;79.63;101387.72;688960;28;1702;-79
2023/07/07 01:38:01;;;;;;;6.87;4.70;;;;;;;12.38;79.72;101392.31;690400;28;1694;-79
2023/07/07 01:38:50;;;;;;;7.90;4.40;;;;;;;12.32;79.83;101387.78;687466;28;1973;-79
2023/07/07 01:39:12;;;;;;;7.18;4.50;;;;;;;12.33;79.94;101397.41;673396;29;1743;-80
2023/07/07 01:39:33;;;;;;;6.15;4.55;;;;;;;12.23;80.05;101380.50;684491;28;1679;-79
2023/07/07 01:39:55;;;;;;;5.75;4.53;;;;;;;12.31;79.81;101391.25;685321;28;1206;-79
2023/07/07 01:40:16;;;;;;;6.22;4.60;;;;;;;12.29;79.75;101382.47;687992;28;1369;-79
2023/07/07 01:40:43;;;;;;;6.47;4.80;;;;;;;12.38;80.19;101389.69;682686;28;1236;-79
2023/07/07 01:41:14;;;;;;;7.22;4.95;;;;;;;12.37;79.94;101390.53;682496;28;1105;-79
2023/07/07 01:41:47;;;;;;;9.52;5.00;;;;;;;12.32;80.26;101382.53;682706;29;857;-79
2023/07/07 01:42:14;;;;;;;8.45;4.78;;;;;;;12.37;80.48;101388.81;682632;29;984;-79
2023/07/07 01:42:47;;;;;;;6.63;4.65;;;;;;;12.39;80.24;101394.06;688057;28;1171;-79
2023/07/07 01:43:22;;;;;;;6.35;4.50;;;;;;;12.36;80.10;101387.03;685010;28;1211;-79
2023/07/07 01:43:57;;;;;;;6.30;4.53;;;;;;;12.38;80.20;101387.06;682623;28;1382;-79
2023/07/07 01:44:23;;;;;;;6.85;4.95;;;;;;;12.46;80.54;101406.50;682173;28;1115;-79
2023/07/07 01:45:05;;;;;;;6.43;4.75;;;;;;;12.45;80.52;101400.41;685108;28;1268;-78
2023/07/07 01:45:44;;;;;;;6.50;4.80;;;;;;;12.42;80.58;101400.28;684391;28;1285;-79
2023/07/07 01:46:16;;;;;;;6.38;5.00;;;;;;;12.34;80.24;101381.75;685105;28;1231;-78
2023/07/07 01:47:04;;;;;;;6.30;4.90;;;;;;;12.36;80.49;101394.00;681440;29;866;-79
2023/07/07 01:47:32;;;;;;;6.63;4.60;;;;;;;12.31;80.31;101386.88;680564;29;1190;-78
2023/07/07 01:48:03;;;;;;;7.03;4.80;;;;;;;12.32;80.27;101387.78;682513;28;1198;-79
2023/07/07 01:48:36;;;;;;;6.03;4.88;;;;;;;12.28;80.34;101383.31;684958;28;1220;-80
2023/07/07 01:49:23;;;;;;;7.28;4.97;;;;;;;12.28;80.59;101389.41;677321;29;1070;-79
2023/07/07 01:49:55;;;;;;;7.25;4.93;;;;;;;12.33;80.37;101395.69;685727;28;1142;-78
2023/07/07 01:50:24;;;;;;;7.00;4.78;;;;;;;12.30;80.58;101389.47;682773;28;1039;-78
2023/07/07 01:50:47;;;;;;;7.13;4.80;;;;;;;12.21;80.29;101382.19;680601;28;1262;-78
2023/07/07 01:51:11;;;;;;;7.30;4.90;;;;;;;12.30;80.66;101395.56;685067;28;1469;-79
2023/07/07 01:51:42;;;;;;;8.25;4.85;;;;;;;12.26;80.84;101391.09;682752;29;870;-79
2023/07/07 01:52:24;;;;;;;7.07;4.60;;;;;;;12.26;80.56;101391.09;687441;28;1251;-79
2023/07/07 01:53:09;;;;;;;5.20;4.20;;;;;;;12.27;80.49;101395.50;682874;28;2081;-79
2023/07/07 01:53:33;;;;;;;6.72;4.75;;;;;;;12.24;80.31;101390.16;677401;29;863;-79
2023/07/07 01:53:56;;;;;;;6.85;4.82;;;;;;;12.24;80.51;101390.16;682520;28;1185;-78
2023/07/07 01:54:19;;;;;;;7.25;4.95;;;;;;;12.21;80.32;101390.06;679509;29;1171;-79
2023/07/07 01:54:46;;;;;;;8.05;5.30;;;;;;;12.20;80.58;101393.50;682680;28;1209;-79
2023/07/07 01:55:18;;;;;;;6.15;4.80;;;;;;;12.19;80.25;101387.38;681886;28;1371;-79
2023/07/07 01:55:47;;;;;;;6.70;4.55;;;;;;;12.14;80.28;101390.69;684769;28;859;-79
2023/07/07 01:56:10;;;;;;;8.13;4.65;;;;;;;12.10;80.27;101375.75;693059;28;1111;-79
2023/07/07 01:56:31;;;;;;;7.85;4.60;;;;;;;12.15;80.40;101389.84;690685;28;837;-79
2023/07/07 01:56:54;;;;;;;7.30;4.85;;;;;;;12.06;80.37;101367.81;685016;28;1356;-79
2023/07/07 01:57:16;;;;;;;5.88;4.80;;;;;;;12.15;80.21;101387.25;682253;28;1122;-79
2023/07/07 01:57:41;;;;;;;6.50;5.00;;;;;;;12.16;80.41;101392.53;684976;28;1535;-79
2023/07/07 01:58:05;;;;;;;7.10;4.82;;;;;;;12.03;80.13;101375.56;688150;28;1514;-79
2023/07/07 01:58:29;;;;;;;7.30;5.07;;;;;;;12.14;80.49;101393.31;685164;28;955;-79
2023/07/07 01:58:51;;;;;;;7.38;5.10;;;;;;;12.11;80.37;101383.63;679882;29;1062;-79
2023/07/07 01:59:13;;;;;;;7.20;5.20;;;;;;;12.13;80.40;101387.22;686285;28;1352;-79
2023/07/07 01:59:34;;;;;;;7.05;4.88;;;;;;;12.13;80.12;101395.06;688052;28;1199;-78
2023/07/07 01:59:56;;;;;;;14.25;5.40;;;;;;;12.07;80.30;101380.03;693302;28;964;-79
2023/07/07 02:00:17;;;;;;;14.38;5.20;;;;;;;12.02;80.05;101372.88;687253;28;1253;-78
2023/07/07 02:00:49;;;;;;;14.50;5.47;;;;;;;12.02;80.32;101379.03;688079;28;890;-79